Time;durP1;ratioP1;P1;durP2;ratioP2;P2;SDS_P1;SDS_P2;PMS_P1;PMS_P2;Temp;Humidity;BMP_temperature;BMP_pressure;BME280_temperature;BME280_humidity;BME280_pressure;Samples;Min_cycle;Max_cycle;Signal;HPM_P1;HPM_P2
2021/06/28 00:00:06;;;;;;;;;;;;;;;25.64;47.87;100675.97;5112909;28;19916;-68
2021/06/28 00:02:52;;;;;;;;;;;;;;;25.58;47.86;100675.66;5112079;28;20298;-68
2021/06/28 00:05:38;;;;;;;;;;;;;;;25.53;48.04;100678.88;5113351;28;19920;-70
2021/06/28 00:08:22;;;;;;;;;;;;;;;25.51;47.98;100678.47;5111102;28;19916;-70
2021/06/28 00:11:08;;;;;;;;;;;;;;;25.48;47.81;100680.13;5101790;28;19916;-70
2021/06/28 00:13:54;;;;;;;;;;;;;;;25.46;47.93;100679.75;5112997;28;19923;-68
2021/06/28 00:16:39;;;;;;;;;;;;;;;25.46;47.75;100670.59;5110326;28;19915;-67
2021/06/28 00:19:24;;;;;;;;;;;;;;;25.47;47.79;100672.97;5117468;28;19915;-68
2021/06/28 00:22:08;;;;;;;;;;;;;;;25.49;47.49;100675.34;5113609;28;20401;-68
2021/06/28 00:24:53;;;;;;;;;;;;;;;25.49;47.63;100675.34;5111368;28;19915;-69
2021/06/28 00:27:38;;;;;;;;;;;;;;;25.44;47.66;100676.59;5115640;28;19920;-70
2021/06/28 00:30:22;;;;;;;;;;;;;;;25.46;47.57;100671.38;5110727;28;19943;-71
2021/06/28 00:33:08;;;;;;;;;;;;;;;25.45;47.57;100680.16;5112342;28;19915;-70
2021/06/28 00:35:53;;;;;;;;;;;;;;;25.42;47.53;100681.00;5100307;28;19916;-70
2021/06/28 00:38:37;;;;;;;;;;;;;;;25.41;47.53;100680.22;5112616;28;19928;-69
2021/06/28 00:41:22;;;;;;;;;;;;;;;25.45;47.51;100682.94;5111354;28;20306;-70
2021/06/28 00:44:06;;;;;;;;;;;;;;;25.48;47.50;100676.53;5114703;28;19920;-69
2021/06/28 00:46:51;;;;;;;;;;;;;;;25.47;47.13;100678.53;5114679;28;19915;-69
2021/06/28 00:49:36;;;;;;;;;;;;;;;25.45;47.34;100680.94;5113088;28;19924;-70
2021/06/28 00:52:20;;;;;;;;;;;;;;;25.42;47.36;100681.78;5116290;28;19924;-70
2021/06/28 00:55:07;;;;;;;;;;;;;;;25.37;47.49;100678.66;5118987;28;19915;-69
2021/06/28 00:57:52;;;;;;;;;;;;;;;25.33;47.59;100675.16;5116220;28;19916;-70
2021/06/28 01:00:37;;;;;;;;;;;;;;;25.30;47.42;100682.31;5119763;28;19924;-70
2021/06/28 01:03:22;;;;;;;;;;;;;;;25.25;47.44;100682.00;5118993;28;19916;-71
2021/06/28 01:06:07;;;;;;;;;;;;;;;25.18;47.67;100682.88;5112317;28;19924;-70
2021/06/28 01:08:52;;;;;;;;;;;;;;;25.16;47.84;100679.72;5111598;28;19915;-71
2021/06/28 01:11:37;;;;;;;;;;;;;;;25.17;47.53;100692.44;5115926;27;19916;-70
2021/06/28 01:14:22;;;;;;;;;;;;;;;25.19;47.66;100692.81;5117122;28;19915;-71
2021/06/28 01:17:06;;;;;;;;;;;;;;;25.21;47.37;100689.59;5118478;28;19915;-73
2021/06/28 01:19:56;;;;;;;;;;;;;;;25.34;47.16;100685.88;5119497;28;19915;-67
2021/06/28 01:22:46;;;;;;;;;;;;;;;25.48;46.85;100691.25;5117098;28;20291;-68
2021/06/28 01:25:30;;;;;;;;;;;;;;;25.57;46.48;100687.19;5116611;28;19916;-67
2021/06/28 01:28:15;;;;;;;;;;;;;;;25.58;46.48;100688.78;5117416;28;19915;-69
2021/06/28 01:31:01;;;;;;;;;;;;;;;25.55;46.12;100684.81;5115997;28;19924;-70
2021/06/28 01:33:46;;;;;;;;;;;;;;;25.53;46.68;100684.44;5117423;28;19916;-68
2021/06/28 01:36:30;;;;;;;;;;;;;;;25.52;46.40;100678.06;5101350;28;19915;-67
2021/06/28 01:39:14;;;;;;;;;;;;;;;25.52;46.26;100682.84;5119095;28;19916;-67
2021/06/28 01:41:59;;;;;;;;;;;;;;;25.45;46.23;100675.38;5114756;27;19919;-68
2021/06/28 01:44:43;;;;;;;;;;;;;;;25.47;46.19;100678.53;5115453;28;19923;-68
2021/06/28 01:47:28;;;;;;;;;;;;;;;25.46;46.19;100685.31;5119398;28;19916;-68
2021/06/28 01:50:13;;;;;;;;;;;;;;;25.45;46.28;100680.16;5118217;28;19916;-68
2021/06/28 01:52:59;;;;;;;;;;;;;;;25.47;46.21;100681.31;5112476;28;19915;-68
2021/06/28 01:55:43;;;;;;;;;;;;;;;25.48;45.98;100677.34;5119959;28;19915;-68
2021/06/28 01:58:28;;;;;;;;;;;;;;;25.46;45.80;100679.75;5098242;28;19916;-68
2021/06/28 02:01:14;;;;;;;;;;;;;;;25.45;45.73;100680.94;5110307;28;19920;-68
2021/06/28 02:03:58;;;;;;;;;;;;;;;25.45;45.85;100675.38;5117376;28;20371;-67
2021/06/28 02:06:43;;;;;;;;;;;;;;;25.44;45.79;100673.81;5117851;28;19924;-67
2021/06/28 02:09:30;;;;;;;;;;;;;;;25.45;45.93;100677.38;5116055;28;19916;-68
2021/06/28 02:12:15;;;;;;;;;;;;;;;25.44;45.83;100671.03;5117528;28;19916;-68
2021/06/28 02:15:00;;;;;;;;;;;;;;;25.45;45.73;100671.78;5116637;28;19916;-67
2021/06/28 02:17:44;;;;;;;;;;;;;;;25.46;45.86;100671.38;5113719;27;19924;-66
2021/06/28 02:20:30;;;;;;;;;;;;;;;25.44;45.96;100662.69;5115540;28;20283;-68
2021/06/28 02:23:21;;;;;;;;;;;;;;;25.41;46.01;100666.28;5100982;28;19916;-68
2021/06/28 02:26:07;;;;;;;;;;;;;;;25.41;45.89;100668.28;5115338;28;20154;-69
2021/06/28 02:28:52;;;;;;;;;;;;;;;25.40;45.81;100666.69;5108989;28;19919;-68
2021/06/28 02:31:37;;;;;;;;;;;;;;;25.39;45.65;100670.69;5113665;28;19928;-67
2021/06/28 02:34:22;;;;;;;;;;;;;;;25.34;45.92;100668.38;5116031;28;19915;-68
2021/06/28 02:37:09;;;;;;;;;;;;;;;25.31;45.77;100664.41;5121119;28;19919;-65
2021/06/28 02:40:13;;;;;;;;;;;;;;;25.30;45.80;100664.81;5113300;27;19916;-64
2021/06/28 02:42:58;;;;;;;;;;;;;;;25.29;45.84;100664.06;5112906;28;19920;-63
2021/06/28 02:45:42;;;;;;;;;;;;;;;25.26;45.90;100662.09;5117928;28;19920;-64
2021/06/28 02:48:27;;;;;;;;;;;;;;;25.25;45.85;100668.88;5114485;28;19924;-64
2021/06/28 02:51:13;;;;;;;;;;;;;;;25.22;46.07;100657.78;5106812;28;19916;-63
2021/06/28 02:53:58;;;;;;;;;;;;;;;25.20;45.96;100657.41;5108725;28;19924;-65
2021/06/28 02:56:42;;;;;;;;;;;;;;;25.21;46.01;100662.56;5114333;28;19915;-63
2021/06/28 02:59:27;;;;;;;;;;;;;;;25.20;45.98;100652.63;5117921;28;19943;-63
2021/06/28 03:02:12;;;;;;;;;;;;;;;25.24;46.06;100647.03;5117244;28;19920;-63
2021/06/28 03:04:56;;;;;;;;;;;;;;;25.27;45.74;100643.41;5113093;28;20303;-64
2021/06/28 03:07:41;;;;;;;;;;;;;;;25.28;45.71;100651.34;5116140;28;19919;-64
2021/06/28 03:10:26;;;;;;;;;;;;;;;25.28;45.66;100648.56;5112600;28;19916;-64
2021/06/28 03:13:11;;;;;;;;;;;;;;;25.25;45.85;100654.94;5114098;28;19916;-64
2021/06/28 03:15:55;;;;;;;;;;;;;;;25.24;45.99;100650.59;5110591;28;19916;-64
2021/06/28 03:18:40;;;;;;;;;;;;;;;25.22;45.71;100646.66;5111035;28;19920;-63
2021/06/28 03:21:25;;;;;;;;;;;;;;;25.21;45.63;100645.84;5109028;28;19920;-63
2021/06/28 03:24:10;;;;;;;;;;;;;;;25.21;45.74;100640.28;5112466;28;19916;-64
2021/06/28 03:26:54;;;;;;;;;;;;;;;25.19;45.68;100642.72;5117333;28;19915;-63
2021/06/28 03:29:39;;;;;;;;;;;;;;;25.19;46.01;100628.81;5113084;28;19924;-63
2021/06/28 03:32:23;;;;;;;;;;;;;;;25.18;45.90;100638.34;5112168;28;19916;-63
2021/06/28 03:35:09;;;;;;;;;;;;;;;25.18;45.73;100641.13;5115467;28;19915;-62
2021/06/28 03:37:53;;;;;;;;;;;;;;;25.14;45.92;100635.59;5115640;28;20298;-63
2021/06/28 03:40:38;;;;;;;;;;;;;;;25.15;45.87;100633.59;5109173;28;19932;-63
2021/06/28 03:43:22;;;;;;;;;;;;;;;25.15;46.13;100636.38;5116125;28;20311;-63
2021/06/28 03:46:07;;;;;;;;;;;;;;;25.18;45.90;100643.91;5112996;28;19919;-63
2021/06/28 03:48:51;;;;;;;;;;;;;;;25.17;45.76;100645.13;5109398;28;19916;-63
2021/06/28 03:51:36;;;;;;;;;;;;;;;25.17;45.72;100642.34;5114345;27;20132;-63
2021/06/28 03:54:21;;;;;;;;;;;;;;;25.15;45.58;100641.94;5104722;28;19916;-64
2021/06/28 03:57:05;;;;;;;;;;;;;;;25.18;45.80;100652.28;5109592;28;20373;-64
2021/06/28 03:59:50;;;;;;;;;;;;;;;25.20;45.70;100649.84;5101297;28;19915;-64
2021/06/28 04:02:40;;;;;;;;;;;;;;;25.21;45.51;100657.00;5110857;28;19919;-65
2021/06/28 04:05:25;;;;;;;;;;;;;;;25.26;45.31;100655.75;5111664;28;19916;-64
2021/06/28 04:08:10;;;;;;;;;;;;;;;25.26;45.54;100650.16;5113616;28;19916;-64
2021/06/28 04:10:54;;;;;;;;;;;;;;;25.28;45.61;100653.34;5113661;28;19924;-65
2021/06/28 04:13:40;;;;;;;;;;;;;;;25.28;45.34;100651.34;5113955;28;19916;-65
2021/06/28 04:16:24;;;;;;;;;;;;;;;25.32;45.56;100656.88;5095112;28;19920;-65
2021/06/28 04:19:09;;;;;;;;;;;;;;;25.31;45.61;100652.50;5114561;28;20375;-64
2021/06/28 04:21:53;;;;;;;;;;;;;;;25.32;45.82;100654.06;5109297;28;19920;-65
2021/06/28 04:24:38;;;;;;;;;;;;;;;25.27;45.80;100654.53;5106776;28;19923;-64
2021/06/28 04:27:22;;;;;;;;;;;;;;;25.21;46.02;100657.00;5109464;28;19916;-65
2021/06/28 04:30:07;;;;;;;;;;;;;;;25.19;45.88;100656.63;5106851;28;19919;-64
2021/06/28 04:32:52;;;;;;;;;;;;;;;25.19;45.51;100656.63;5110170;28;19916;-64
2021/06/28 04:35:37;;;;;;;;;;;;;;;25.17;45.77;100670.16;5115945;28;19916;-62
2021/06/28 04:38:21;;;;;;;;;;;;;;;25.21;45.44;100670.91;5095589;28;19916;-63
2021/06/28 04:41:06;;;;;;;;;;;;;;;25.19;45.82;100678.91;5107161;28;19920;-65
2021/06/28 04:43:51;;;;;;;;;;;;;;;25.21;45.43;100673.69;5115214;28;19915;-63
2021/06/28 04:46:35;;;;;;;;;;;;;;;25.23;45.34;100682.44;5113229;28;19915;-64
2021/06/28 04:49:19;;;;;;;;;;;;;;;25.23;45.40;100682.44;5093975;28;19915;-63
2021/06/28 04:52:04;;;;;;;;;;;;;;;25.27;45.31;100683.16;5113496;28;19916;-64
2021/06/28 04:54:49;;;;;;;;;;;;;;;25.28;44.97;100679.19;5113382;28;19964;-63
2021/06/28 04:57:33;;;;;;;;;;;;;;;25.30;44.84;100687.91;5113370;28;19941;-64
2021/06/28 05:00:19;;;;;;;;;;;;;;;25.31;44.89;100692.25;5114289;28;19923;-64
2021/06/28 05:03:04;;;;;;;;;;;;;;;25.33;45.11;100689.06;5113138;27;19920;-65
2021/06/28 05:05:48;;;;;;;;;;;;;;;25.36;45.22;100691.00;5108078;28;19916;-64
2021/06/28 05:08:33;;;;;;;;;;;;;;;25.34;44.99;100685.88;5110229;28;20283;-65
2021/06/28 05:11:17;;;;;;;;;;;;;;;25.36;45.05;100693.78;5114111;28;19916;-65
2021/06/28 05:14:03;;;;;;;;;;;;;;;25.36;45.10;100697.38;5111699;28;19916;-63
2021/06/28 05:16:48;;;;;;;;;;;;;;;25.32;45.30;100688.28;5115264;28;19916;-64
2021/06/28 05:19:33;;;;;;;;;;;;;;;25.35;45.18;100681.88;5107255;28;19916;-64
2021/06/28 05:22:17;;;;;;;;;;;;;;;25.36;44.97;100689.03;5111246;28;19924;-64
2021/06/28 05:25:02;;;;;;;;;;;;;;;25.40;44.87;100686.19;5111148;28;19917;-62
2021/06/28 05:27:47;;;;;;;;;;;;;;;25.44;44.94;100686.94;5112636;28;19915;-64
2021/06/28 05:30:31;;;;;;;;;;;;;;;25.46;44.91;100688.09;5110359;28;20299;-63
2021/06/28 05:33:16;;;;;;;;;;;;;;;25.47;44.82;100692.47;5106796;28;19916;-63
2021/06/28 05:36:01;;;;;;;;;;;;;;;25.78;44.01;100696.06;5113349;28;19919;-66
2021/06/28 05:38:45;;;;;;;;;;;;;;;25.98;43.68;100687.81;5111249;28;19916;-66
2021/06/28 05:41:30;;;;;;;;;;;;;;;26.10;43.52;100698.38;5112902;28;20386;-66
2021/06/28 05:44:15;;;;;;;;;;;;;;;26.22;43.25;100697.03;5116050;28;19916;-66
2021/06/28 05:46:59;;;;;;;;;;;;;;;26.28;42.95;100693.34;5111937;28;21047;-66
2021/06/28 05:49:46;;;;;;;;;;;;;;;26.43;42.83;100687.53;5115153;28;19916;-66
2021/06/28 05:52:30;;;;;;;;;;;;;;;26.42;43.33;100702.69;5119449;28;19916;-65
2021/06/28 05:55:15;;;;;;;;;;;;;;;26.41;43.12;100704.69;5118652;28;19916;-65
2021/06/28 05:57:59;;;;;;;;;;;;;;;26.49;43.15;100702.56;5115375;28;20271;-71
2021/06/28 06:00:44;;;;;;;;;;;;;;;26.43;43.40;100705.06;5117306;28;19916;-65
2021/06/28 06:03:29;;;;;;;;;;;;;;;26.41;43.36;100703.91;5115331;28;19919;-65
2021/06/28 06:06:14;;;;;;;;;;;;;;;26.45;43.31;100705.44;5116098;28;20105;-64
2021/06/28 06:08:58;;;;;;;;;;;;;;;26.48;43.29;100707.34;5110550;28;19916;-64
2021/06/28 06:11:43;;;;;;;;;;;;;;;26.48;43.35;100706.56;5117871;28;19916;-65
2021/06/28 06:14:27;;;;;;;;;;;;;;;26.48;43.32;100709.34;5115911;27;20278;-65
2021/06/28 06:17:12;;;;;;;;;;;;;;;26.64;42.03;100706.69;5117251;28;19915;-65
2021/06/28 06:19:58;;;;;;;;;;;;;;;26.65;42.82;100705.50;5116809;28;19920;-64
2021/06/28 06:22:43;;;;;;;;;;;;;;;26.67;42.50;100697.47;5115497;28;20294;-65
2021/06/28 06:25:27;;;;;;;;;;;;;;;26.75;42.51;100710.09;5114344;28;19919;-65
2021/06/28 06:28:12;;;;;;;;;;;;;;;26.74;41.51;100709.31;5116942;28;19916;-64
2021/06/28 06:30:57;;;;;;;;;;;;;;;26.72;42.47;100714.50;5113802;28;19982;-64
2021/06/28 06:33:41;;;;;;;;;;;;;;;26.81;41.85;100716.75;5114950;28;19916;-64
2021/06/28 06:36:26;;;;;;;;;;;;;;;27.03;41.29;100720.75;5119288;28;20371;-65
2021/06/28 06:39:10;;;;;;;;;;;;;;;26.99;41.44;100724.84;5116486;28;19916;-64
2021/06/28 06:41:54;;;;;;;;;;;;;;;27.07;40.73;100715.88;5096861;28;20294;-63
2021/06/28 06:44:40;;;;;;;;;;;;;;;27.09;41.05;100716.25;5117371;28;19916;-63
2021/06/28 06:47:25;;;;;;;;;;;;;;;27.20;37.23;100716.84;5115761;28;19916;-62
2021/06/28 06:50:11;;;;;;;;;;;;;;;27.14;40.56;100721.34;5115265;28;19916;-64
2021/06/28 06:52:57;;;;;;;;;;;;;;;27.23;38.96;100718.75;5116938;28;19915;-64
2021/06/28 06:55:41;;;;;;;;;;;;;;;27.22;39.97;100720.00;5119099;28;19915;-64
2021/06/28 06:58:25;;;;;;;;;;;;;;;27.21;39.65;100714.84;5114331;28;19915;-64
2021/06/28 07:01:14;;;;;;;;;;;;;;;27.24;39.54;100717.56;5103977;28;19915;-63
2021/06/28 07:03:58;;;;;;;;;;;;;;;27.37;36.80;100722.50;5114489;28;19920;-63
2021/06/28 07:06:43;;;;;;;;;;;;;;;27.50;38.33;100715.88;5113487;28;19947;-65
2021/06/28 07:09:28;;;;;;;;;;;;;;;27.52;37.31;100715.44;5118592;28;19916;-65
2021/06/28 07:12:12;;;;;;;;;;;;;;;27.52;38.32;100712.66;5116782;28;19916;-63
2021/06/28 07:14:57;;;;;;;;;;;;;;;27.59;36.31;100710.47;5112709;28;20391;-63
2021/06/28 07:17:41;;;;;;;;;;;;;;;27.61;37.99;100715.66;5115183;28;19919;-64
2021/06/28 07:20:26;;;;;;;;;;;;;;;27.60;37.17;100717.66;5116250;28;19915;-64
2021/06/28 07:23:11;;;;;;;;;;;;;;;27.54;37.67;100715.78;5114489;28;20295;-64
2021/06/28 07:25:55;;;;;;;;;;;;;;;27.63;34.79;100707.63;5113460;28;19915;-64
2021/06/28 07:28:40;;;;;;;;;;;;;;;27.76;31.95;100708.53;5111813;28;19923;-63
2021/06/28 07:31:25;;;;;;;;;;;;;;;28.23;31.61;100705.50;5111417;28;19915;-64
2021/06/28 07:34:09;;;;;;;;;;;;;;;28.17;35.86;100719.22;5112161;28;19915;-64
2021/06/28 07:36:55;;;;;;;;;;;;;;;28.42;32.21;100722.19;5117171;28;19916;-64
2021/06/28 07:39:39;;;;;;;;;;;;;;;28.36;34.19;100718.34;5113145;28;19916;-64
2021/06/28 07:42:25;;;;;;;;;;;;;;;28.39;34.56;100725.09;5111343;28;19919;-65
2021/06/28 07:45:11;;;;;;;;;;;;;;;28.38;33.40;100718.69;5116138;28;20309;-65
2021/06/28 07:47:58;;;;;;;;;;;;;;;28.44;33.00;100704.97;5114882;28;19915;-64
2021/06/28 07:50:43;;;;;;;;;;;;;;;28.39;34.08;100713.91;5110903;28;19916;-64
2021/06/28 07:53:27;;;;;;;;;;;;;;;28.25;34.84;100714.22;5115695;28;19920;-63
2021/06/28 07:56:17;;;;;;;;;;;;;;;28.32;33.80;100714.06;5115700;28;19916;-64
2021/06/28 07:59:03;;;;;;;;;;;;;;;28.54;33.99;100709.53;5110604;28;19916;-65
2021/06/28 08:01:48;;;;;;;;;;;;;;;28.52;33.98;100717.56;5115496;28;19927;-65
2021/06/28 08:04:32;;;;;;;;;;;;;;;28.74;33.38;100715.81;5113863;28;20367;-65
2021/06/28 08:07:16;;;;;;;;;;;;;;;28.84;32.85;100717.56;5113110;28;19916;-64
2021/06/28 08:10:03;;;;;;;;;;;;;;;28.84;33.91;100716.75;5114807;28;19916;-65
2021/06/28 08:12:49;;;;;;;;;;;;;;;29.10;33.31;100723.28;5114038;28;19916;-65
2021/06/28 08:15:33;;;;;;;;;;;;;;;29.16;33.04;100721.47;5113537;28;19915;-64
2021/06/28 08:18:18;;;;;;;;;;;;;;;29.29;34.02;100720.31;5113677;28;19919;-64
2021/06/28 08:21:03;;;;;;;;;;;;;;;29.62;34.23;100726.56;5116223;28;19915;-63
2021/06/28 08:23:48;;;;;;;;;;;;;;;29.50;33.81;100716.16;5111561;28;20434;-64
2021/06/28 08:26:33;;;;;;;;;;;;;;;29.46;35.37;100720.28;5116596;28;19915;-64
2021/06/28 08:29:18;;;;;;;;;;;;;;;29.21;35.43;100712.53;5115351;28;20306;-64
2021/06/28 08:32:05;;;;;;;;;;;;;;;29.35;35.22;100714.97;5111343;28;19916;-63
2021/06/28 08:34:52;;;;;;;;;;;;;;;29.41;36.00;100716.00;5115598;28;19916;-65
2021/06/28 08:37:38;;;;;;;;;;;;;;;29.29;35.75;100714.72;5115065;28;19916;-65
2021/06/28 08:40:22;;;;;;;;;;;;;;;29.40;35.22;100711.63;5113766;28;19916;-65
2021/06/28 08:43:08;;;;;;;;;;;;;;;29.46;35.59;100704.22;5115559;28;19919;-65
2021/06/28 08:45:54;;;;;;;;;;;;;;;29.49;35.02;100716.59;5117465;28;19916;-65
2021/06/28 08:48:40;;;;;;;;;;;;;;;29.43;36.28;100707.16;5112271;28;19919;-65
2021/06/28 08:51:25;;;;;;;;;;;;;;;29.35;35.84;100717.78;5115234;28;19916;-63
2021/06/28 08:54:12;;;;;;;;;;;;;;;29.51;36.10;100720.50;5101947;27;19916;-64
2021/06/28 08:56:57;;;;;;;;;;;;;;;29.52;36.10;100719.28;5112304;28;19916;-64
2021/06/28 08:59:42;;;;;;;;;;;;;;;29.63;36.72;100733.75;5109064;28;19916;-64
2021/06/28 09:02:26;;;;;;;;;;;;;;;29.56;35.51;100722.75;5112145;28;19919;-65
2021/06/28 09:05:11;;;;;;;;;;;;;;;29.82;35.77;100723.59;5114153;28;19916;-65
2021/06/28 09:08:12;;;;;;;;;;;;;;;29.95;35.74;100732.03;5112736;28;19916;-65
2021/06/28 09:10:57;;;;;;;;;;;;;;;29.71;36.05;100734.34;5119937;28;19916;-63
2021/06/28 09:13:42;;;;;;;;;;;;;;;29.87;35.81;100730.69;5119280;28;19924;-65
2021/06/28 09:16:28;;;;;;;;;;;;;;;29.93;36.62;100734.50;5115309;28;19915;-65
2021/06/28 09:19:17;;;;;;;;;;;;;;;29.70;35.79;100733.56;5119277;28;19919;-64
2021/06/28 09:22:02;;;;;;;;;;;;;;;29.82;35.63;100734.03;5118778;28;20845;-66
2021/06/28 09:24:49;;;;;;;;;;;;;;;29.88;35.68;100737.84;5117307;28;20294;-65
2021/06/28 09:27:41;;;;;;;;;;;;;;;30.24;34.25;100729.13;5117504;28;19919;-65
2021/06/28 09:30:26;;;;;;;;;;;;;;;29.64;35.50;100729.75;5117767;28;19916;-65
2021/06/28 09:33:11;;;;;;;;;;;;;;;29.59;35.50;100733.09;5114632;28;19916;-64
2021/06/28 09:35:55;;;;;;;;;;;;;;;29.75;35.02;100724.59;5113976;28;19916;-64
2021/06/28 09:38:40;;;;;;;;;;;;;;;29.95;35.10;100721.63;5114972;28;19915;-63
2021/06/28 09:41:30;;;;;;;;;;;;;;;30.14;34.03;100723.41;5116484;28;20376;-64
2021/06/28 09:44:15;;;;;;;;;;;;;;;30.24;34.05;100724.31;5119107;28;19920;-64
2021/06/28 09:47:05;;;;;;;;;;;;;;;30.48;33.66;100725.53;5117295;28;19916;-65
2021/06/28 09:50:02;;;;;;;;;;;;;;;30.16;34.65;100726.56;5108136;28;19915;-64
2021/06/28 09:52:47;;;;;;;;;;;;;;;30.82;32.91;100732.44;5118725;28;19915;-65
2021/06/28 09:55:34;;;;;;;;;;;;;;;30.73;33.45;100724.69;5111919;28;19915;-64
2021/06/28 09:58:25;;;;;;;;;;;;;;;30.76;33.29;100720.19;5107385;28;19916;-65
2021/06/28 10:01:09;;;;;;;;;;;;;;;30.66;33.74;100722.13;5111848;27;19919;-65
2021/06/28 10:03:55;;;;;;;;;;;;;;;30.73;33.99;100718.31;5113502;28;19919;-64
2021/06/28 10:06:40;;;;;;;;;;;;;;;30.67;33.82;100718.09;5119967;28;19916;-64
2021/06/28 10:09:26;;;;;;;;;;;;;;;30.67;33.67;100709.69;5120703;28;19916;-64
2021/06/28 10:12:17;;;;;;;;;;;;;;;30.43;34.47;100712.03;5117884;28;19916;-64
2021/06/28 10:15:03;;;;;;;;;;;;;;;30.12;34.63;100697.06;5114469;28;19915;-64
2021/06/28 10:17:48;;;;;;;;;;;;;;;30.22;34.84;100701.53;5111219;28;19924;-65
2021/06/28 10:20:34;;;;;;;;;;;;;;;30.88;33.21;100699.72;5113836;28;19916;-63
2021/06/28 10:23:19;;;;;;;;;;;;;;;30.79;33.57;100696.81;5106831;27;19920;-65
2021/06/28 10:26:05;;;;;;;;;;;;;;;30.80;33.33;100692.78;5119431;28;19917;-66
2021/06/28 10:28:49;;;;;;;;;;;;;;;31.06;32.22;100691.47;5112022;28;19923;-65
2021/06/28 10:31:34;;;;;;;;;;;;;;;31.23;32.80;100687.22;5113533;28;19916;-66
2021/06/28 10:34:19;;;;;;;;;;;;;;;31.08;33.48;100693.81;5117688;28;19920;-65
2021/06/28 10:37:23;;;;;;;;;;;;;;;30.81;33.42;100683.13;5116470;28;19915;-65
2021/06/28 10:40:13;;;;;;;;;;;;;;;30.83;33.42;100683.47;5107124;28;19920;-65
2021/06/28 10:42:58;;;;;;;;;;;;;;;31.43;31.27;100679.25;5111914;28;19919;-64
2021/06/28 10:45:44;;;;;;;;;;;;;;;31.51;31.20;100679.75;5111247;28;19915;-65
2021/06/28 10:48:29;;;;;;;;;;;;;;;31.42;32.75;100674.84;5101230;28;19920;-64
2021/06/28 10:51:15;;;;;;;;;;;;;;;31.34;31.31;100661.53;5114251;27;19916;-64
2021/06/28 10:54:01;;;;;;;;;;;;;;;31.69;31.64;100665.03;5111054;28;19916;-64
2021/06/28 10:56:53;;;;;;;;;;;;;;;31.00;31.89;100659.53;5106389;28;20399;-65
2021/06/28 10:59:41;;;;;;;;;;;;;;;31.46;31.85;100657.06;5111811;27;19924;-65
2021/06/28 11:02:35;;;;;;;;;;;;;;;31.74;32.47;100661.63;5112547;27;19928;-65
2021/06/28 11:05:19;;;;;;;;;;;;;;;31.54;32.13;100659.16;5108824;28;19916;-63
2021/06/28 11:08:19;;;;;;;;;;;;;;;31.73;31.39;100654.41;5108780;28;19916;-64
2021/06/28 11:11:03;;;;;;;;;;;;;;;31.01;32.73;100649.88;5114451;28;19916;-66
2021/06/28 11:13:54;;;;;;;;;;;;;;;31.67;31.80;100657.06;5116915;27;20376;-64
2021/06/28 11:16:40;;;;;;;;;;;;;;;31.69;31.33;100653.78;5119265;28;19919;-65
2021/06/28 11:22:31;;;;;;;;;;;;;;;32.08;30.48;100644.53;5115897;28;19920;-64
2021/06/28 11:25:24;;;;;;;;;;;;;;;31.97;31.49;100647.00;5119223;28;19923;-63
2021/06/28 11:28:13;;;;;;;;;;;;;;;32.32;30.32;100644.78;5105488;28;19916;-64
2021/06/28 11:31:05;;;;;;;;;;;;;;;31.30;32.59;100641.97;5116224;27;19916;-65
2021/06/28 11:33:50;;;;;;;;;;;;;;;31.97;29.72;100629.34;5114868;27;19916;-64
2021/06/28 11:36:36;;;;;;;;;;;;;;;31.84;31.15;100626.66;5113081;28;19919;-65
2021/06/28 11:39:21;;;;;;;;;;;;;;;31.55;31.74;100628.97;5120822;27;19915;-65
2021/06/28 11:42:18;;;;;;;;;;;;;;;31.42;32.31;100620.66;5118213;27;19916;-65
2021/06/28 11:45:03;;;;;;;;;;;;;;;31.29;32.37;100615.13;5115398;27;20307;-64
2021/06/28 11:47:48;;;;;;;;;;;;;;;31.22;32.52;100618.22;5119627;27;19915;-64
2021/06/28 11:50:32;;;;;;;;;;;;;;;31.26;32.27;100621.66;5115268;27;19915;-63
2021/06/28 11:53:19;;;;;;;;;;;;;;;31.24;32.38;100617.75;5115547;27;19920;-64
2021/06/28 11:56:18;;;;;;;;;;;;;;;31.36;31.02;100614.06;5120792;27;19915;-65
2021/06/28 11:59:05;;;;;;;;;;;;;;;31.09;32.81;100611.13;5114735;27;19916;-65
2021/06/28 12:01:54;;;;;;;;;;;;;;;31.52;32.24;100615.88;5119268;27;19916;-65
2021/06/28 12:04:40;;;;;;;;;;;;;;;32.05;30.55;100614.50;5114841;27;19924;-63
2021/06/28 12:07:26;;;;;;;;;;;;;;;32.08;30.85;100613.59;5109260;28;19915;-64
2021/06/28 12:10:10;;;;;;;;;;;;;;;32.21;29.60;100610.66;5113364;27;20315;-62
2021/06/28 12:12:56;;;;;;;;;;;;;;;31.94;30.78;100608.56;5113371;27;19915;-65
2021/06/28 12:15:41;;;;;;;;;;;;;;;32.36;32.12;100619.28;5112021;27;19924;-64
2021/06/28 12:18:25;;;;;;;;;;;;;;;32.64;31.49;100606.81;5117453;27;19915;-64
2021/06/28 12:21:10;;;;;;;;;;;;;;;32.74;31.70;100611.19;5110366;27;19916;-64
2021/06/28 12:24:21;;;;;;;;;;;;;;;32.74;30.83;100611.19;5114591;28;19927;-65
2021/06/28 12:27:07;;;;;;;;;;;;;;;31.90;32.39;100595.88;5114980;28;20375;-65
2021/06/28 12:29:53;;;;;;;;;;;;;;;31.69;33.06;100589.88;5114572;28;20379;-65
2021/06/28 12:32:44;;;;;;;;;;;;;;;32.18;32.76;100600.34;5109015;27;20372;-63
2021/06/28 12:35:29;;;;;;;;;;;;;;;32.61;31.54;100593.66;5121299;27;19915;-65
2021/06/28 12:38:14;;;;;;;;;;;;;;;32.62;30.81;100603.66;5117346;27;19916;-65
2021/06/28 12:40:58;;;;;;;;;;;;;;;32.90;30.33;100608.06;5122703;27;19916;-63
2021/06/28 12:43:44;;;;;;;;;;;;;;;32.53;30.70;100601.63;5117200;28;19920;-65
2021/06/28 12:46:30;;;;;;;;;;;;;;;32.84;29.20;100601.47;5122594;27;19919;-64
2021/06/28 12:49:15;;;;;;;;;;;;;;;32.56;30.62;100595.03;5123795;27;19915;-65
2021/06/28 12:52:18;;;;;;;;;;;;;;;32.39;30.31;100593.81;5131583;27;19920;-65
2021/06/28 12:55:07;;;;;;;;;;;;;;;32.44;30.23;100590.38;5125453;27;19916;-65
2021/06/28 12:58:07;;;;;;;;;;;;;;;32.64;30.26;100593.53;5125109;27;19919;-65
2021/06/28 13:00:52;;;;;;;;;;;;;;;32.68;29.39;100582.09;5126843;27;19923;-65
2021/06/28 13:03:36;;;;;;;;;;;;;;;32.62;28.62;100584.72;5131863;27;20279;-65
2021/06/28 13:06:22;;;;;;;;;;;;;;;33.22;27.55;100592.50;5131119;27;19915;-64
2021/06/28 13:09:14;;;;;;;;;;;;;;;32.90;27.94;100596.78;5132089;27;19916;-65
2021/06/28 13:11:59;;;;;;;;;;;;;;;32.42;28.80;100595.66;5123346;27;19916;-65
2021/06/28 13:14:57;;;;;;;;;;;;;;;32.15;29.91;100587.22;5132629;27;19915;-64
2021/06/28 13:17:41;;;;;;;;;;;;;;;32.34;29.38;100576.75;5129431;27;19919;-65
2021/06/28 13:20:27;;;;;;;;;;;;;;;32.58;29.04;100581.28;5129032;27;19916;-64
2021/06/28 13:23:20;;;;;;;;;;;;;;;32.34;29.83;100571.91;5134317;27;20382;-65
2021/06/28 13:26:11;;;;;;;;;;;;;;;32.53;29.16;100581.91;5130028;27;19915;-63
2021/06/28 13:28:57;;;;;;;;;;;;;;;32.65;28.89;100574.59;5127299;27;19915;-64
2021/06/28 13:31:48;;;;;;;;;;;;;;;32.79;29.20;100571.13;5126671;27;19915;-65
2021/06/28 13:34:35;;;;;;;;;;;;;;;32.80;28.82;100577.56;5128526;27;19916;-63
2021/06/28 13:37:20;;;;;;;;;;;;;;;32.92;28.01;100568.13;5121968;27;19920;-63
2021/06/28 13:40:15;;;;;;;;;;;;;;;32.92;28.53;100568.91;5129252;27;19915;-65
2021/06/28 13:43:00;;;;;;;;;;;;;;;32.92;28.06;100568.13;5125788;27;19923;-63
2021/06/28 13:45:45;;;;;;;;;;;;;;;32.90;27.34;100565.00;5120789;27;19916;-64
2021/06/28 13:48:30;;;;;;;;;;;;;;;32.91;27.70;100570.19;5129252;27;20580;-65
2021/06/28 13:51:14;;;;;;;;;;;;;;;32.79;28.12;100559.84;5132169;27;19916;-64
2021/06/28 13:53:58;;;;;;;;;;;;;;;32.66;29.43;100557.19;5120907;27;19916;-66
2021/06/28 13:56:43;;;;;;;;;;;;;;;32.62;28.58;100567.81;5134285;27;19916;-66
2021/06/28 13:59:27;;;;;;;;;;;;;;;33.05;28.41;100572.34;5119144;27;19916;-65
2021/06/28 14:02:12;;;;;;;;;;;;;;;33.03;28.24;100574.03;5124459;27;19916;-65
2021/06/28 14:04:57;;;;;;;;;;;;;;;32.98;29.28;100566.22;5123389;27;19920;-65
2021/06/28 14:07:41;;;;;;;;;;;;;;;33.33;28.10;100564.59;5121297;27;19915;-65
2021/06/28 14:10:26;;;;;;;;;;;;;;;33.05;28.71;100561.06;5122904;27;19915;-63
2021/06/28 14:13:11;;;;;;;;;;;;;;;33.10;27.96;100557.59;5130095;27;19923;-64